Clarks Grove, MN (56016)

7:32 PM CDT on March 30, 2017 (GMT -0500)
South Geneva Lake | | Change Station

Elev 1207 ft 43.77 °N, 93.27 °W | Updated 2 minutes ago

Overcast
Overcast
40.6 °F
Feels Like 41 °F
N
3.0
Wind Variable Wind from ENE
Gusts 16.0 mph

Today
High -- | Low -- °F
--% Chance of Precip.
Yesterday
High -- | Low -- °F
Precip. -- in
Pressure 29.77 in
Visibility 10.0 miles
Clouds Overcast 1700 ft
Windchill 41 °F
Dew Point 36 °F
Humidity 85%
Rainfall 0.11 in
Snow Depth Not available.
6:57 AM 7:38 PM
Waxing Crescent, 12% visible
METAR KAEL 310011Z AUTO 05012KT 10SM OVC017 04/02 A2977 RMK AO2
Pressure 29.77 in
Visibility 10.0 miles
Clouds Overcast 1700 ft
Windchill 41 °F
Dew Point 36 °F
Humidity 85%
Rainfall 0.11 in
Snow Depth Not available.
6:57 AM 7:38 PM
Waxing Crescent, 12% visible
METAR KAEL 310011Z AUTO 05012KT 10SM OVC017 04/02 A2977 RMK AO2

Get Severe Weather Alerts

Thanks for signing up!

Be on the lookout for a verification email in your inbox.

You'll start receiving the daily forecast at 8 AM.

×

10-Day Weather Forecast

Almanac

Astronomy

Mar. 30, 2017 Rise Set
Actual Time
Civil Twilight
Nautical Twilight
Astronomical Twilight
Moon
Length of Visible Light
Length of Day
Tomorrow will be .
, % of the Moon is Illuminated

Today's Extremes

State Highs State Lows

Community

WunderPhotos

Upload Photos

1,962,540 photos uploaded!

WunderBlog® & News

Nearby

Air Quality

  Air Quality AQ Index Pollutant
Not available.

Snow Depth

Station Depth Elevation

Earthquake Activity

City Distance Mag. Time & Date
Minimum magnitude displayed is 2.5.

Earthquake Activity

City Distance Mag. Time & Date
Minimum magnitude displayed is 2.5.

Coastal Water Temperatures

Place Temperature

Stations

Nearby Weather Stations

Station Location Temp. Windchill Dew Point Humidity Wind Precip. Elev Updated Type
                   

Watches & Warnings

There are currently no watches in effect.